sensor_id;sensor_type;location;lat;lon;timestamp;P1;durP1;ratioP1;P2;durP2;ratioP2
59516;SDS011;45342;42.662;27.718;2022-10-13T00:01:42;2.45;;;1.50;;
59516;SDS011;45342;42.662;27.718;2022-10-13T00:04:08;2.58;;;1.60;;
59516;SDS011;45342;42.662;27.718;2022-10-13T00:06:33;2.08;;;1.33;;
59516;SDS011;45342;42.662;27.718;2022-10-13T00:08:59;1.75;;;1.40;;
59516;SDS011;45342;42.662;27.718;2022-10-13T00:11:25;2.08;;;1.40;;
59516;SDS011;45342;42.662;27.718;2022-10-13T00:13:56;1.60;;;1.48;;
59516;SDS011;45342;42.662;27.718;2022-10-13T00:16:24;2.05;;;1.38;;
59516;SDS011;45342;42.662;27.718;2022-10-13T00:18:51;1.88;;;1.48;;
59516;SDS011;45342;42.662;27.718;2022-10-13T00:21:17;1.98;;;1.35;;
59516;SDS011;45342;42.662;27.718;2022-10-13T00:23:45;1.40;;;1.20;;
59516;SDS011;45342;42.662;27.718;2022-10-13T00:26:11;2.72;;;1.52;;
59516;SDS011;45342;42.662;27.718;2022-10-13T00:28:38;2.42;;;1.60;;
59516;SDS011;45342;42.662;27.718;2022-10-13T00:31:14;2.10;;;1.38;;
59516;SDS011;45342;42.662;27.718;2022-10-13T00:33:40;2.42;;;1.40;;
59516;SDS011;45342;42.662;27.718;2022-10-13T00:36:05;2.30;;;1.50;;
59516;SDS011;45342;42.662;27.718;2022-10-13T00:38:31;1.65;;;1.40;;
59516;SDS011;45342;42.662;27.718;2022-10-13T00:40:57;2.58;;;1.45;;
59516;SDS011;45342;42.662;27.718;2022-10-13T00:43:24;3.17;;;2.05;;
59516;SDS011;45342;42.662;27.718;2022-10-13T00:45:52;1.77;;;1.55;;
59516;SDS011;45342;42.662;27.718;2022-10-13T00:48:22;1.42;;;1.33;;
59516;SDS011;45342;42.662;27.718;2022-10-13T00:50:49;1.48;;;1.30;;
59516;SDS011;45342;42.662;27.718;2022-10-13T00:53:16;1.50;;;1.40;;
59516;SDS011;45342;42.662;27.718;2022-10-13T00:55:42;2.33;;;1.38;;
59516;SDS011;45342;42.662;27.718;2022-10-13T00:58:09;1.80;;;1.30;;
59516;SDS011;45342;42.662;27.718;2022-10-13T01:00:40;2.40;;;1.50;;
59516;SDS011;45342;42.662;27.718;2022-10-13T01:03:08;2.30;;;1.45;;
59516;SDS011;45342;42.662;27.718;2022-10-13T01:05:34;3.25;;;1.60;;
59516;SDS011;45342;42.662;27.718;2022-10-13T01:08:00;1.40;;;1.30;;
59516;SDS011;45342;42.662;27.718;2022-10-13T01:13:41;2.67;;;1.27;;
59516;SDS011;45342;42.662;27.718;2022-10-13T01:29:24;1.80;;;1.35;;
59516;SDS011;45342;42.662;27.718;2022-10-13T01:32:16;2.25;;;1.45;;
59516;SDS011;45342;42.662;27.718;2022-10-13T01:37:41;1.70;;;1.45;;
59516;SDS011;45342;42.662;27.718;2022-10-13T01:42:39;1.35;;;1.05;;
59516;SDS011;45342;42.662;27.718;2022-10-13T01:45:10;2.35;;;1.30;;
59516;SDS011;45342;42.662;27.718;2022-10-13T01:47:38;1.95;;;1.20;;
59516;SDS011;45342;42.662;27.718;2022-10-13T01:50:05;3.05;;;1.58;;
59516;SDS011;45342;42.662;27.718;2022-10-13T01:52:32;2.08;;;1.50;;
59516;SDS011;45342;42.662;27.718;2022-10-13T01:55:18;1.50;;;1.38;;
59516;SDS011;45342;42.662;27.718;2022-10-13T01:57:44;1.45;;;1.20;;
59516;SDS011;45342;42.662;27.718;2022-10-13T02:00:11;2.50;;;1.75;;
59516;SDS011;45342;42.662;27.718;2022-10-13T02:05:33;2.33;;;1.48;;
59516;SDS011;45342;42.662;27.718;2022-10-13T02:15:43;1.52;;;1.40;;
59516;SDS011;45342;42.662;27.718;2022-10-13T02:18:12;2.38;;;1.73;;
59516;SDS011;45342;42.662;27.718;2022-10-13T02:20:40;2.00;;;1.50;;
59516;SDS011;45342;42.662;27.718;2022-10-13T02:23:08;1.92;;;1.67;;
59516;SDS011;45342;42.662;27.718;2022-10-13T02:25:36;3.58;;;1.77;;
59516;SDS011;45342;42.662;27.718;2022-10-13T02:28:02;2.78;;;1.65;;
59516;SDS011;45342;42.662;27.718;2022-10-13T02:30:29;2.22;;;1.88;;
59516;SDS011;45342;42.662;27.718;2022-10-13T02:32:58;3.00;;;2.00;;
59516;SDS011;45342;42.662;27.718;2022-10-13T02:35:24;3.72;;;1.90;;
59516;SDS011;45342;42.662;27.718;2022-10-13T02:37:50;3.58;;;2.00;;
59516;SDS011;45342;42.662;27.718;2022-10-13T02:40:15;2.38;;;1.98;;
59516;SDS011;45342;42.662;27.718;2022-10-13T02:42:41;3.05;;;2.10;;
59516;SDS011;45342;42.662;27.718;2022-10-13T02:45:07;2.35;;;1.95;;
59516;SDS011;45342;42.662;27.718;2022-10-13T02:47:33;4.13;;;2.10;;
59516;SDS011;45342;42.662;27.718;2022-10-13T02:49:59;3.55;;;2.17;;
59516;SDS011;45342;42.662;27.718;2022-10-13T02:52:24;2.97;;;2.10;;
59516;SDS011;45342;42.662;27.718;2022-10-13T02:54:50;2.40;;;1.92;;
59516;SDS011;45342;42.662;27.718;2022-10-13T02:57:16;3.63;;;2.10;;
59516;SDS011;45342;42.662;27.718;2022-10-13T02:59:42;2.88;;;1.90;;
59516;SDS011;45342;42.662;27.718;2022-10-13T03:02:07;3.70;;;2.03;;
59516;SDS011;45342;42.662;27.718;2022-10-13T03:04:33;3.55;;;2.20;;
59516;SDS011;45342;42.662;27.718;2022-10-13T03:06:59;4.28;;;2.40;;
59516;SDS011;45342;42.662;27.718;2022-10-13T03:09:24;2.50;;;1.98;;
59516;SDS011;45342;42.662;27.718;2022-10-13T03:11:50;4.43;;;2.50;;
59516;SDS011;45342;42.662;27.718;2022-10-13T03:14:16;3.55;;;2.30;;
59516;SDS011;45342;42.662;27.718;2022-10-13T03:16:41;4.15;;;2.50;;
59516;SDS011;45342;42.662;27.718;2022-10-13T03:19:07;3.92;;;2.00;;
59516;SDS011;45342;42.662;27.718;2022-10-13T03:21:33;4.80;;;2.45;;
59516;SDS011;45342;42.662;27.718;2022-10-13T03:23:58;4.03;;;2.70;;
59516;SDS011;45342;42.662;27.718;2022-10-13T03:26:24;3.78;;;2.60;;
59516;SDS011;45342;42.662;27.718;2022-10-13T03:28:50;3.63;;;2.40;;
59516;SDS011;45342;42.662;27.718;2022-10-13T03:31:16;5.18;;;2.70;;
59516;SDS011;45342;42.662;27.718;2022-10-13T03:33:42;3.25;;;2.45;;
59516;SDS011;45342;42.662;27.718;2022-10-13T03:38:34;4.30;;;2.72;;
59516;SDS011;45342;42.662;27.718;2022-10-13T03:41:11;3.58;;;2.40;;
59516;SDS011;45342;42.662;27.718;2022-10-13T03:43:39;4.53;;;2.70;;
59516;SDS011;45342;42.662;27.718;2022-10-13T03:46:05;3.85;;;2.50;;
59516;SDS011;45342;42.662;27.718;2022-10-13T03:48:32;3.67;;;2.63;;
59516;SDS011;45342;42.662;27.718;2022-10-13T03:50:59;3.58;;;2.55;;
59516;SDS011;45342;42.662;27.718;2022-10-13T03:53:28;3.47;;;2.90;;
59516;SDS011;45342;42.662;27.718;2022-10-13T03:55:54;3.40;;;2.50;;
59516;SDS011;45342;42.662;27.718;2022-10-13T03:58:20;3.38;;;2.60;;
59516;SDS011;45342;42.662;27.718;2022-10-13T04:00:48;4.35;;;2.85;;
59516;SDS011;45342;42.662;27.718;2022-10-13T04:05:40;4.95;;;3.00;;
59516;SDS011;45342;42.662;27.718;2022-10-13T04:08:06;3.88;;;2.80;;
59516;SDS011;45342;42.662;27.718;2022-10-13T04:10:32;4.45;;;3.22;;
59516;SDS011;45342;42.662;27.718;2022-10-13T04:12:58;4.07;;;3.13;;
59516;SDS011;45342;42.662;27.718;2022-10-13T04:15:24;4.30;;;2.78;;
59516;SDS011;45342;42.662;27.718;2022-10-13T04:17:50;4.57;;;2.90;;
59516;SDS011;45342;42.662;27.718;2022-10-13T04:20:15;4.35;;;2.80;;
59516;SDS011;45342;42.662;27.718;2022-10-13T04:22:41;3.65;;;2.80;;
59516;SDS011;45342;42.662;27.718;2022-10-13T04:25:07;5.40;;;3.28;;
59516;SDS011;45342;42.662;27.718;2022-10-13T04:27:33;7.35;;;3.15;;
59516;SDS011;45342;42.662;27.718;2022-10-13T04:30:02;6.00;;;2.90;;
59516;SDS011;45342;42.662;27.718;2022-10-13T04:32:29;4.40;;;2.85;;
59516;SDS011;45342;42.662;27.718;2022-10-13T04:34:54;4.50;;;2.90;;
59516;SDS011;45342;42.662;27.718;2022-10-13T04:37:20;4.20;;;2.88;;
59516;SDS011;45342;42.662;27.718;2022-10-13T04:39:45;3.75;;;2.70;;
59516;SDS011;45342;42.662;27.718;2022-10-13T04:42:11;3.63;;;2.60;;
59516;SDS011;45342;42.662;27.718;2022-10-13T04:44:37;5.22;;;3.08;;
59516;SDS011;45342;42.662;27.718;2022-10-13T04:47:02;7.03;;;3.03;;
59516;SDS011;45342;42.662;27.718;2022-10-13T04:49:28;6.05;;;2.95;;
59516;SDS011;45342;42.662;27.718;2022-10-13T04:51:53;6.00;;;3.17;;
59516;SDS011;45342;42.662;27.718;2022-10-13T04:54:19;4.28;;;3.17;;
59516;SDS011;45342;42.662;27.718;2022-10-13T04:56:45;5.03;;;3.00;;
59516;SDS011;45342;42.662;27.718;2022-10-13T04:59:11;4.45;;;2.88;;
59516;SDS011;45342;42.662;27.718;2022-10-13T05:01:36;5.38;;;3.13;;
59516;SDS011;45342;42.662;27.718;2022-10-13T05:04:03;4.90;;;3.20;;
59516;SDS011;45342;42.662;27.718;2022-10-13T05:08:57;4.93;;;2.80;;
59516;SDS011;45342;42.662;27.718;2022-10-13T05:11:23;6.15;;;3.08;;
59516;SDS011;45342;42.662;27.718;2022-10-13T05:13:50;4.65;;;3.05;;
59516;SDS011;45342;42.662;27.718;2022-10-13T05:16:16;5.15;;;2.90;;
59516;SDS011;45342;42.662;27.718;2022-10-13T05:18:43;4.15;;;2.88;;
59516;SDS011;45342;42.662;27.718;2022-10-13T05:21:10;4.30;;;3.00;;
59516;SDS011;45342;42.662;27.718;2022-10-13T05:23:36;6.22;;;3.17;;
59516;SDS011;45342;42.662;27.718;2022-10-13T05:26:03;4.63;;;2.78;;
59516;SDS011;45342;42.662;27.718;2022-10-13T05:28:30;4.75;;;2.72;;
59516;SDS011;45342;42.662;27.718;2022-10-13T05:30:56;5.45;;;3.25;;
59516;SDS011;45342;42.662;27.718;2022-10-13T05:33:21;3.95;;;2.78;;
59516;SDS011;45342;42.662;27.718;2022-10-13T05:35:47;5.50;;;3.25;;
59516;SDS011;45342;42.662;27.718;2022-10-13T05:38:19;4.35;;;2.53;;
59516;SDS011;45342;42.662;27.718;2022-10-13T05:41:13;3.97;;;3.22;;
59516;SDS011;45342;42.662;27.718;2022-10-13T05:43:39;3.90;;;3.05;;
59516;SDS011;45342;42.662;27.718;2022-10-13T05:46:15;4.13;;;3.10;;
59516;SDS011;45342;42.662;27.718;2022-10-13T05:48:41;6.20;;;3.53;;
59516;SDS011;45342;42.662;27.718;2022-10-13T05:51:11;4.45;;;2.88;;
59516;SDS011;45342;42.662;27.718;2022-10-13T05:53:41;4.97;;;3.00;;
59516;SDS011;45342;42.662;27.718;2022-10-13T05:56:13;4.35;;;3.10;;
59516;SDS011;45342;42.662;27.718;2022-10-13T05:58:44;4.13;;;2.80;;
59516;SDS011;45342;42.662;27.718;2022-10-13T06:01:13;5.35;;;2.90;;
59516;SDS011;45342;42.662;27.718;2022-10-13T06:03:41;3.85;;;2.92;;
59516;SDS011;45342;42.662;27.718;2022-10-13T06:06:07;5.15;;;3.03;;
59516;SDS011;45342;42.662;27.718;2022-10-13T06:08:33;3.58;;;2.65;;
59516;SDS011;45342;42.662;27.718;2022-10-13T06:10:59;4.47;;;3.00;;
59516;SDS011;45342;42.662;27.718;2022-10-13T06:13:26;4.30;;;2.90;;
59516;SDS011;45342;42.662;27.718;2022-10-13T06:15:53;4.28;;;2.97;;
59516;SDS011;45342;42.662;27.718;2022-10-13T06:18:19;2.97;;;2.60;;
59516;SDS011;45342;42.662;27.718;2022-10-13T06:20:47;5.25;;;2.92;;
59516;SDS011;45342;42.662;27.718;2022-10-13T06:23:12;6.68;;;3.22;;
59516;SDS011;45342;42.662;27.718;2022-10-13T06:25:48;4.45;;;3.10;;
59516;SDS011;45342;42.662;27.718;2022-10-13T06:28:17;3.43;;;2.67;;
59516;SDS011;45342;42.662;27.718;2022-10-13T06:30:49;5.35;;;3.13;;
59516;SDS011;45342;42.662;27.718;2022-10-13T06:33:24;4.25;;;2.70;;
59516;SDS011;45342;42.662;27.718;2022-10-13T06:35:50;5.13;;;3.05;;
59516;SDS011;45342;42.662;27.718;2022-10-13T06:38:18;3.55;;;2.58;;
59516;SDS011;45342;42.662;27.718;2022-10-13T06:40:47;4.55;;;2.72;;
59516;SDS011;45342;42.662;27.718;2022-10-13T06:48:26;4.15;;;2.75;;
59516;SDS011;45342;42.662;27.718;2022-10-13T06:50:52;3.97;;;2.53;;
59516;SDS011;45342;42.662;27.718;2022-10-13T06:53:18;4.00;;;2.20;;
59516;SDS011;45342;42.662;27.718;2022-10-13T06:55:43;4.15;;;2.55;;
59516;SDS011;45342;42.662;27.718;2022-10-13T07:00:39;3.35;;;2.53;;
59516;SDS011;45342;42.662;27.718;2022-10-13T07:03:09;4.82;;;2.40;;
59516;SDS011;45342;42.662;27.718;2022-10-13T07:05:37;3.35;;;2.25;;
59516;SDS011;45342;42.662;27.718;2022-10-13T07:08:03;4.75;;;2.42;;
59516;SDS011;45342;42.662;27.718;2022-10-13T07:10:38;3.10;;;2.20;;
59516;SDS011;45342;42.662;27.718;2022-10-13T07:16:19;2.17;;;1.95;;
59516;SDS011;45342;42.662;27.718;2022-10-13T07:18:48;3.05;;;2.42;;
59516;SDS011;45342;42.662;27.718;2022-10-13T07:21:18;3.75;;;2.13;;
59516;SDS011;45342;42.662;27.718;2022-10-13T07:26:41;3.30;;;2.20;;
59516;SDS011;45342;42.662;27.718;2022-10-13T07:29:28;3.08;;;2.42;;
59516;SDS011;45342;42.662;27.718;2022-10-13T07:37:55;2.40;;;1.80;;
59516;SDS011;45342;42.662;27.718;2022-10-13T07:40:23;3.60;;;2.20;;
59516;SDS011;45342;42.662;27.718;2022-10-13T07:42:50;3.40;;;2.17;;
59516;SDS011;45342;42.662;27.718;2022-10-13T07:45:16;3.42;;;2.20;;
59516;SDS011;45342;42.662;27.718;2022-10-13T07:47:42;3.72;;;2.30;;
59516;SDS011;45342;42.662;27.718;2022-10-13T07:50:07;7.78;;;2.13;;
59516;SDS011;45342;42.662;27.718;2022-10-13T07:52:34;3.90;;;2.28;;
59516;SDS011;45342;42.662;27.718;2022-10-13T07:58:00;4.28;;;1.90;;
59516;SDS011;45342;42.662;27.718;2022-10-13T08:01:00;3.97;;;1.88;;
59516;SDS011;45342;42.662;27.718;2022-10-13T08:03:35;3.20;;;1.90;;
59516;SDS011;45342;42.662;27.718;2022-10-13T08:08:48;4.15;;;2.10;;
59516;SDS011;45342;42.662;27.718;2022-10-13T08:11:14;3.05;;;1.98;;
59516;SDS011;45342;42.662;27.718;2022-10-13T08:13:55;5.10;;;1.95;;
59516;SDS011;45342;42.662;27.718;2022-10-13T08:16:28;8.52;;;2.30;;
59516;SDS011;45342;42.662;27.718;2022-10-13T08:19:01;3.33;;;2.08;;
59516;SDS011;45342;42.662;27.718;2022-10-13T08:27:38;4.00;;;2.25;;
59516;SDS011;45342;42.662;27.718;2022-10-13T08:33:06;2.63;;;1.95;;
59516;SDS011;45342;42.662;27.718;2022-10-13T08:36:18;3.83;;;2.20;;
59516;SDS011;45342;42.662;27.718;2022-10-13T08:38:47;3.45;;;1.88;;
59516;SDS011;45342;42.662;27.718;2022-10-13T08:44:39;4.18;;;1.98;;
59516;SDS011;45342;42.662;27.718;2022-10-13T08:50:20;3.03;;;1.98;;
59516;SDS011;45342;42.662;27.718;2022-10-13T08:52:56;2.95;;;1.55;;
59516;SDS011;45342;42.662;27.718;2022-10-13T08:55:27;7.95;;;2.10;;
59516;SDS011;45342;42.662;27.718;2022-10-13T08:57:54;2.55;;;1.65;;
59516;SDS011;45342;42.662;27.718;2022-10-13T09:00:23;3.50;;;1.80;;
59516;SDS011;45342;42.662;27.718;2022-10-13T09:02:50;3.15;;;1.98;;
59516;SDS011;45342;42.662;27.718;2022-10-13T09:08:29;3.08;;;1.50;;
59516;SDS011;45342;42.662;27.718;2022-10-13T09:11:34;3.72;;;1.80;;
59516;SDS011;45342;42.662;27.718;2022-10-13T09:17:21;4.57;;;2.03;;
59516;SDS011;45342;42.662;27.718;2022-10-13T09:26:07;2.30;;;1.70;;
59516;SDS011;45342;42.662;27.718;2022-10-13T09:29:32;4.15;;;1.80;;
59516;SDS011;45342;42.662;27.718;2022-10-13T09:32:12;1.98;;;1.55;;
59516;SDS011;45342;42.662;27.718;2022-10-13T09:34:50;2.22;;;1.70;;
59516;SDS011;45342;42.662;27.718;2022-10-13T09:37:21;3.95;;;1.70;;
59516;SDS011;45342;42.662;27.718;2022-10-13T09:52:37;2.88;;;1.60;;
59516;SDS011;45342;42.662;27.718;2022-10-13T09:58:20;2.25;;;1.60;;
59516;SDS011;45342;42.662;27.718;2022-10-13T10:01:10;1.88;;;1.58;;
59516;SDS011;45342;42.662;27.718;2022-10-13T10:04:19;1.77;;;1.43;;
59516;SDS011;45342;42.662;27.718;2022-10-13T10:07:42;3.10;;;1.65;;
59516;SDS011;45342;42.662;27.718;2022-10-13T10:13:16;4.95;;;1.67;;
59516;SDS011;45342;42.662;27.718;2022-10-13T10:16:00;3.63;;;1.65;;
59516;SDS011;45342;42.662;27.718;2022-10-13T10:30:36;3.30;;;1.60;;
59516;SDS011;45342;42.662;27.718;2022-10-13T10:33:07;3.38;;;1.60;;
59516;SDS011;45342;42.662;27.718;2022-10-13T10:41:11;2.17;;;1.80;;
59516;SDS011;45342;42.662;27.718;2022-10-13T10:46:35;4.13;;;1.70;;
59516;SDS011;45342;42.662;27.718;2022-10-13T10:49:09;3.80;;;1.63;;
59516;SDS011;45342;42.662;27.718;2022-10-13T10:51:38;2.88;;;1.50;;
59516;SDS011;45342;42.662;27.718;2022-10-13T10:54:08;3.33;;;1.70;;
59516;SDS011;45342;42.662;27.718;2022-10-13T10:56:43;3.33;;;1.40;;
59516;SDS011;45342;42.662;27.718;2022-10-13T11:04:46;3.85;;;1.80;;
59516;SDS011;45342;42.662;27.718;2022-10-13T11:17:36;3.75;;;1.83;;
59516;SDS011;45342;42.662;27.718;2022-10-13T11:20:47;5.68;;;2.00;;
59516;SDS011;45342;42.662;27.718;2022-10-13T11:28:26;3.72;;;1.85;;
59516;SDS011;45342;42.662;27.718;2022-10-13T11:30:47;3.78;;;2.00;;
59516;SDS011;45342;42.662;27.718;2022-10-13T11:44:27;3.35;;;1.70;;
59516;SDS011;45342;42.662;27.718;2022-10-13T11:47:06;3.05;;;1.83;;
59516;SDS011;45342;42.662;27.718;2022-10-13T11:55:03;4.60;;;1.88;;
59516;SDS011;45342;42.662;27.718;2022-10-13T11:57:33;3.55;;;1.95;;
59516;SDS011;45342;42.662;27.718;2022-10-13T11:59:59;2.83;;;1.83;;
59516;SDS011;45342;42.662;27.718;2022-10-13T12:02:25;3.95;;;2.03;;
59516;SDS011;45342;42.662;27.718;2022-10-13T12:07:32;6.45;;;1.70;;
59516;SDS011;45342;42.662;27.718;2022-10-13T12:10:00;4.25;;;1.80;;
59516;SDS011;45342;42.662;27.718;2022-10-13T12:12:28;4.57;;;1.80;;
59516;SDS011;45342;42.662;27.718;2022-10-13T12:14:54;3.47;;;1.70;;
59516;SDS011;45342;42.662;27.718;2022-10-13T12:19:53;3.25;;;1.50;;
59516;SDS011;45342;42.662;27.718;2022-10-13T12:22:20;4.68;;;1.80;;
59516;SDS011;45342;42.662;27.718;2022-10-13T12:25:02;3.70;;;1.70;;
59516;SDS011;45342;42.662;27.718;2022-10-13T12:27:30;3.88;;;2.03;;
59516;SDS011;45342;42.662;27.718;2022-10-13T12:30:00;4.85;;;1.80;;
59516;SDS011;45342;42.662;27.718;2022-10-13T12:32:29;4.38;;;1.70;;
59516;SDS011;45342;42.662;27.718;2022-10-13T12:38:02;4.70;;;1.88;;
59516;SDS011;45342;42.662;27.718;2022-10-13T12:40:31;3.42;;;1.63;;
59516;SDS011;45342;42.662;27.718;2022-10-13T12:42:57;4.47;;;1.75;;
59516;SDS011;45342;42.662;27.718;2022-10-13T12:45:25;3.97;;;1.88;;
59516;SDS011;45342;42.662;27.718;2022-10-13T12:47:54;3.22;;;1.60;;
59516;SDS011;45342;42.662;27.718;2022-10-13T12:52:55;3.83;;;1.77;;
59516;SDS011;45342;42.662;27.718;2022-10-13T12:55:29;3.20;;;1.77;;
59516;SDS011;45342;42.662;27.718;2022-10-13T12:57:55;3.55;;;1.92;;
59516;SDS011;45342;42.662;27.718;2022-10-13T13:00:22;4.60;;;2.13;;
59516;SDS011;45342;42.662;27.718;2022-10-13T13:02:53;4.78;;;1.60;;
59516;SDS011;45342;42.662;27.718;2022-10-13T13:10:56;4.35;;;1.88;;
59516;SDS011;45342;42.662;27.718;2022-10-13T13:13:23;2.92;;;1.85;;
59516;SDS011;45342;42.662;27.718;2022-10-13T13:15:49;7.20;;;1.98;;
59516;SDS011;45342;42.662;27.718;2022-10-13T13:18:22;4.00;;;1.80;;
59516;SDS011;45342;42.662;27.718;2022-10-13T13:21:01;3.97;;;1.80;;
59516;SDS011;45342;42.662;27.718;2022-10-13T13:23:29;3.60;;;1.77;;
59516;SDS011;45342;42.662;27.718;2022-10-13T13:28:41;3.40;;;2.00;;
59516;SDS011;45342;42.662;27.718;2022-10-13T13:31:11;2.65;;;1.50;;
59516;SDS011;45342;42.662;27.718;2022-10-13T13:33:38;5.85;;;1.80;;
59516;SDS011;45342;42.662;27.718;2022-10-13T13:36:04;3.95;;;1.70;;
59516;SDS011;45342;42.662;27.718;2022-10-13T13:38:34;3.58;;;1.45;;
59516;SDS011;45342;42.662;27.718;2022-10-13T13:41:00;3.17;;;1.60;;
59516;SDS011;45342;42.662;27.718;2022-10-13T13:43:26;3.72;;;1.77;;
59516;SDS011;45342;42.662;27.718;2022-10-13T13:45:51;1.83;;;1.50;;
59516;SDS011;45342;42.662;27.718;2022-10-13T13:48:17;3.25;;;1.58;;
59516;SDS011;45342;42.662;27.718;2022-10-13T13:50:42;4.30;;;1.70;;
59516;SDS011;45342;42.662;27.718;2022-10-13T13:53:08;4.60;;;1.50;;
59516;SDS011;45342;42.662;27.718;2022-10-13T13:55:33;3.15;;;1.52;;
59516;SDS011;45342;42.662;27.718;2022-10-13T13:57:59;3.30;;;1.30;;
59516;SDS011;45342;42.662;27.718;2022-10-13T14:00:25;2.65;;;1.48;;
59516;SDS011;45342;42.662;27.718;2022-10-13T14:02:51;3.00;;;1.38;;
59516;SDS011;45342;42.662;27.718;2022-10-13T14:05:16;4.03;;;1.60;;
59516;SDS011;45342;42.662;27.718;2022-10-13T14:07:42;2.03;;;1.50;;
59516;SDS011;45342;42.662;27.718;2022-10-13T14:10:08;1.98;;;1.27;;
59516;SDS011;45342;42.662;27.718;2022-10-13T14:12:34;3.70;;;1.50;;
59516;SDS011;45342;42.662;27.718;2022-10-13T14:14:59;3.33;;;1.30;;
59516;SDS011;45342;42.662;27.718;2022-10-13T14:17:25;1.40;;;1.20;;
59516;SDS011;45342;42.662;27.718;2022-10-13T14:19:52;1.50;;;1.27;;
59516;SDS011;45342;42.662;27.718;2022-10-13T14:22:17;2.05;;;1.20;;
59516;SDS011;45342;42.662;27.718;2022-10-13T14:24:43;1.80;;;1.20;;
59516;SDS011;45342;42.662;27.718;2022-10-13T14:27:09;2.45;;;1.13;;
59516;SDS011;45342;42.662;27.718;2022-10-13T14:29:35;1.40;;;1.25;;
59516;SDS011;45342;42.662;27.718;2022-10-13T14:32:01;2.90;;;1.30;;
59516;SDS011;45342;42.662;27.718;2022-10-13T14:34:26;3.72;;;1.17;;
59516;SDS011;45342;42.662;27.718;2022-10-13T14:36:52;2.63;;;1.40;;
59516;SDS011;45342;42.662;27.718;2022-10-13T14:39:18;3.05;;;1.30;;
59516;SDS011;45342;42.662;27.718;2022-10-13T14:41:43;1.98;;;1.20;;
59516;SDS011;45342;42.662;27.718;2022-10-13T14:44:10;1.95;;;1.08;;
59516;SDS011;45342;42.662;27.718;2022-10-13T14:46:36;1.70;;;1.15;;
59516;SDS011;45342;42.662;27.718;2022-10-13T14:49:01;2.13;;;1.10;;
59516;SDS011;45342;42.662;27.718;2022-10-13T14:51:27;1.70;;;1.05;;
59516;SDS011;45342;42.662;27.718;2022-10-13T14:53:53;1.08;;;1.00;;
59516;SDS011;45342;42.662;27.718;2022-10-13T14:56:22;3.13;;;1.25;;
59516;SDS011;45342;42.662;27.718;2022-10-13T14:58:50;1.48;;;1.00;;
59516;SDS011;45342;42.662;27.718;2022-10-13T15:04:01;4.32;;;1.02;;
59516;SDS011;45342;42.662;27.718;2022-10-13T15:06:27;2.15;;;1.17;;
59516;SDS011;45342;42.662;27.718;2022-10-13T15:08:52;1.77;;;1.00;;
59516;SDS011;45342;42.662;27.718;2022-10-13T15:13:45;1.65;;;1.10;;
59516;SDS011;45342;42.662;27.718;2022-10-13T15:16:17;1.45;;;1.00;;
59516;SDS011;45342;42.662;27.718;2022-10-13T15:18:44;1.58;;;1.02;;
59516;SDS011;45342;42.662;27.718;2022-10-13T15:23:36;1.70;;;1.20;;
59516;SDS011;45342;42.662;27.718;2022-10-13T15:26:02;3.00;;;1.00;;
59516;SDS011;45342;42.662;27.718;2022-10-13T15:28:29;3.03;;;1.40;;
59516;SDS011;45342;42.662;27.718;2022-10-13T15:30:59;2.13;;;1.25;;
59516;SDS011;45342;42.662;27.718;2022-10-13T15:33:25;1.65;;;1.08;;
59516;SDS011;45342;42.662;27.718;2022-10-13T15:35:51;2.92;;;1.23;;
59516;SDS011;45342;42.662;27.718;2022-10-13T15:38:17;2.35;;;0.98;;
59516;SDS011;45342;42.662;27.718;2022-10-13T15:40:44;1.75;;;1.17;;
59516;SDS011;45342;42.662;27.718;2022-10-13T15:43:10;2.33;;;1.10;;
59516;SDS011;45342;42.662;27.718;2022-10-13T15:45:36;3.30;;;1.60;;
59516;SDS011;45342;42.662;27.718;2022-10-13T15:48:02;3.78;;;1.90;;
59516;SDS011;45342;42.662;27.718;2022-10-13T15:50:29;2.45;;;1.40;;
59516;SDS011;45342;42.662;27.718;2022-10-13T15:52:55;2.17;;;1.08;;
59516;SDS011;45342;42.662;27.718;2022-10-13T15:55:21;1.15;;;1.05;;
59516;SDS011;45342;42.662;27.718;2022-10-13T15:57:46;1.90;;;1.08;;
59516;SDS011;45342;42.662;27.718;2022-10-13T16:00:13;4.90;;;1.45;;
59516;SDS011;45342;42.662;27.718;2022-10-13T16:02:39;2.78;;;1.20;;
59516;SDS011;45342;42.662;27.718;2022-10-13T16:05:06;3.10;;;1.42;;
59516;SDS011;45342;42.662;27.718;2022-10-13T16:07:33;1.55;;;0.88;;
59516;SDS011;45342;42.662;27.718;2022-10-13T16:12:26;2.30;;;1.30;;
59516;SDS011;45342;42.662;27.718;2022-10-13T16:14:52;2.13;;;1.05;;
59516;SDS011;45342;42.662;27.718;2022-10-13T16:17:18;2.63;;;1.30;;
59516;SDS011;45342;42.662;27.718;2022-10-13T16:19:44;1.48;;;1.20;;
59516;SDS011;45342;42.662;27.718;2022-10-13T16:22:10;1.70;;;1.20;;
59516;SDS011;45342;42.662;27.718;2022-10-13T16:24:36;2.00;;;1.20;;
59516;SDS011;45342;42.662;27.718;2022-10-13T16:27:02;1.80;;;1.08;;
59516;SDS011;45342;42.662;27.718;2022-10-13T16:29:28;2.05;;;1.17;;
59516;SDS011;45342;42.662;27.718;2022-10-13T16:31:53;2.38;;;1.25;;
59516;SDS011;45342;42.662;27.718;2022-10-13T16:34:19;1.67;;;1.00;;
59516;SDS011;45342;42.662;27.718;2022-10-13T16:36:46;2.22;;;1.10;;
59516;SDS011;45342;42.662;27.718;2022-10-13T16:39:12;3.40;;;1.23;;
59516;SDS011;45342;42.662;27.718;2022-10-13T16:41:38;2.28;;;1.23;;
59516;SDS011;45342;42.662;27.718;2022-10-13T16:44:04;2.15;;;1.10;;
59516;SDS011;45342;42.662;27.718;2022-10-13T16:46:30;1.67;;;1.00;;
59516;SDS011;45342;42.662;27.718;2022-10-13T16:48:57;1.88;;;0.85;;
59516;SDS011;45342;42.662;27.718;2022-10-13T16:51:23;1.92;;;1.00;;
59516;SDS011;45342;42.662;27.718;2022-10-13T16:53:50;1.92;;;0.95;;
59516;SDS011;45342;42.662;27.718;2022-10-13T16:56:17;2.53;;;1.10;;
59516;SDS011;45342;42.662;27.718;2022-10-13T16:58:55;3.85;;;1.17;;
59516;SDS011;45342;42.662;27.718;2022-10-13T17:01:22;1.73;;;1.00;;
59516;SDS011;45342;42.662;27.718;2022-10-13T17:03:49;3.10;;;0.95;;
59516;SDS011;45342;42.662;27.718;2022-10-13T17:06:16;1.23;;;1.05;;
59516;SDS011;45342;42.662;27.718;2022-10-13T17:08:42;1.30;;;0.82;;
59516;SDS011;45342;42.662;27.718;2022-10-13T17:11:15;2.22;;;0.95;;
59516;SDS011;45342;42.662;27.718;2022-10-13T17:13:42;2.03;;;1.20;;
59516;SDS011;45342;42.662;27.718;2022-10-13T17:16:08;2.10;;;1.13;;
59516;SDS011;45342;42.662;27.718;2022-10-13T17:18:34;2.55;;;1.17;;
59516;SDS011;45342;42.662;27.718;2022-10-13T17:21:01;1.95;;;1.23;;
59516;SDS011;45342;42.662;27.718;2022-10-13T17:23:28;4.75;;;1.30;;
59516;SDS011;45342;42.662;27.718;2022-10-13T17:25:59;4.40;;;1.23;;
59516;SDS011;45342;42.662;27.718;2022-10-13T17:28:26;2.60;;;1.23;;
59516;SDS011;45342;42.662;27.718;2022-10-13T17:30:55;1.77;;;0.85;;
59516;SDS011;45342;42.662;27.718;2022-10-13T17:33:26;2.25;;;1.02;;
59516;SDS011;45342;42.662;27.718;2022-10-13T17:35:56;2.03;;;1.00;;
59516;SDS011;45342;42.662;27.718;2022-10-13T17:38:26;1.33;;;0.95;;
59516;SDS011;45342;42.662;27.718;2022-10-13T17:40:52;1.20;;;0.93;;
59516;SDS011;45342;42.662;27.718;2022-10-13T17:43:18;4.55;;;1.00;;
59516;SDS011;45342;42.662;27.718;2022-10-13T17:45:43;3.30;;;1.30;;
59516;SDS011;45342;42.662;27.718;2022-10-13T17:48:09;0.82;;;0.82;;
59516;SDS011;45342;42.662;27.718;2022-10-13T17:50:35;1.45;;;0.95;;
59516;SDS011;45342;42.662;27.718;2022-10-13T17:53:00;2.03;;;1.40;;
59516;SDS011;45342;42.662;27.718;2022-10-13T17:55:26;3.65;;;2.38;;
59516;SDS011;45342;42.662;27.718;2022-10-13T17:57:52;2.78;;;1.48;;
59516;SDS011;45342;42.662;27.718;2022-10-13T18:00:18;2.88;;;1.40;;
59516;SDS011;45342;42.662;27.718;2022-10-13T18:02:43;2.22;;;1.15;;